Thunder radar more information blitzortung!


Radar de pluja more information rain snow radar


Visita la nostra xarxa de llocs de meteo:

Template documentation
and downloads

And another site



No particular awareness of the weather is required.    There are no Weather-warnings

Pagina Historial Weather Underground text

Diari Resum Agost 6, 2017 Unitats:  Imperial    Mètric   Tant
« Previous Dia
SegĂźent Dia »
Diari Setmana Mensual Anual Personalitzada
  Maxima: Minima: Media:
Temperatura: 94.5 °F 72 °F 82.8 °F
Punt de rosada: 67.1 °F 61.9 °F 65.5 °F
Humitat: 78 % 39 % 58 %
Wind Speed: 15 mph 0 mph 4.2 mph
RĂ fegues de vent: 15 mph - -
Vent:- - SSW
Pression baro: 30 in 29.9 in -
Precipitacions: 0 in    
Historical Graphs
 
 
Dades de taula per Agost 6, 2017
Temps Temperatura Punt de rosada Pression baro Vent Wind Speed RĂ fegues de vent Humitat Rainfall Rate (Hourly)
00:00 75.4 °F 64.9 °F 29.9 in NNE 1 mph 2 mph 70 % 0 in
00:01 80.1 °F 61.9 °F 29.9 in Calm     54 % 0 in
00:10 75 °F 64.9 °F 29.9 in Calm   2 mph 71 % 0 in
00:20 74.8 °F 64.8 °F 29.9 in Calm   1 mph 71 % 0 in
00:30 75 °F 65.5 °F 29.9 in Calm   1 mph 72 % 0 in
00:40 74.5 °F 64.9 °F 29.9 in Calm   2 mph 72 % 0 in
00:50 74.7 °F 64.9 °F 29.9 in North 2 mph 2 mph 72 % 0 in
01:00 74.7 °F 65.5 °F 29.9 in Calm   2 mph 73 % 0 in
01:10 74.8 °F 65.1 °F 30 in Calm   1 mph 72 % 0 in
01:20 74.8 °F 65.1 °F 29.9 in Calm   1 mph 72 % 0 in
01:30 74.5 °F 64.9 °F 29.9 in Calm   2 mph 72 % 0 in
01:40 73.9 °F 64.2 °F 30 in SW 2 mph 3 mph 72 % 0 in
01:50 73.9 °F 64.8 °F 30 in SW 1 mph 2 mph 73 % 0 in
02:00 74.1 °F 64.9 °F 30 in Calm   1 mph 73 % 0 in
02:10 73.9 °F 64.8 °F 30 in NW 1 mph 2 mph 73 % 0 in
02:20 73.8 °F 64.9 °F 30 in SW 1 mph 1 mph 74 % 0 in
02:30 73.8 °F 64.9 °F 30 in SW 1 mph 2 mph 74 % 0 in
02:40 73.8 °F 64.9 °F 30 in WSW 1 mph 3 mph 74 % 0 in
02:50 74.7 °F 65.8 °F 30 in North 1 mph 2 mph 74 % 0 in
03:00 74.5 °F 65.3 °F 30 in North 1 mph 2 mph 73 % 0 in
03:10 74.3 °F 65.5 °F 30 in SW 1 mph 2 mph 74 % 0 in
03:20 74.5 °F 65.7 °F 30 in SW 2 mph 2 mph 74 % 0 in
03:30 74.8 °F 65.1 °F 30 in Calm   2 mph 72 % 0 in
03:40 75.7 °F 64.8 °F 30 in SW 1 mph 2 mph 69 % 0 in
03:50 76.5 °F 65.5 °F 30 in Calm   1 mph 69 % 0 in
04:00 77.9 °F 66 °F 30 in SSW 1 mph 2 mph 67 % 0 in
04:10 79.5 °F 65.8 °F 30 in SSW 2 mph 2 mph 63 % 0 in
04:20 80.2 °F 65.7 °F 30 in SSW 1 mph 2 mph 61 % 0 in
04:30 80.4 °F 65.7 °F 30 in SW 1 mph 3 mph 61 % 0 in
04:40 81.1 °F 65.5 °F 30 in SW 2 mph 3 mph 59 % 0 in
04:50 82.8 °F 66.9 °F 30 in Calm   2 mph 59 % 0 in
05:00 83.7 °F 66.4 °F 30 in SE 2 mph 3 mph 56 % 0 in
05:10 82.8 °F 64.4 °F 30 in East 3 mph 3 mph 54 % 0 in
05:20 83.8 °F 65.8 °F 30 in ESE 2 mph 2 mph 55 % 0 in
05:30 86.2 °F 66.9 °F 30 in SSE 1 mph 4 mph 53 % 0 in
05:40 86.5 °F 66.7 °F 30 in Calm   3 mph 52 % 0 in
05:50 86.2 °F 65.8 °F 30 in South 1 mph 4 mph 51 % 0 in
06:00 87.4 °F 67.1 °F 30 in South 1 mph 4 mph 51 % 0 in
06:10 87.6 °F 66 °F 30 in SSW 1 mph 2 mph 49 % 0 in
06:20 88.3 °F 66.2 °F 30 in SSW 3 mph 3 mph 48 % 0 in
06:30 88.2 °F 65.5 °F 30 in SW 2 mph 4 mph 47 % 0 in
06:40 88.5 °F 65.1 °F 30 in West 2 mph 3 mph 46 % 0 in
06:50 90.3 °F 66 °F 30 in NW 1 mph 3 mph 45 % 0 in
07:00 91.4 °F 65.8 °F 30 in SSW 2 mph 3 mph 43 % 0 in
07:10 92.7 °F 66.2 °F 30 in SSE 2 mph 4 mph 42 % 0 in
07:20 91.2 °F 65.7 °F 30 in South 3 mph 6 mph 43 % 0 in
07:30 91 °F 64.8 °F 30 in SW 3 mph 3 mph 42 % 0 in
07:40 92.8 °F 65.7 °F 30 in SW 2 mph 3 mph 41 % 0 in
07:50 93 °F 65.8 °F 30 in SSW 1 mph 3 mph 41 % 0 in
08:00 93.4 °F 65.5 °F 30 in SSW 1 mph 4 mph 40 % 0 in
08:10 93.6 °F 64.9 °F 30 in SSW 3 mph 5 mph 39 % 0 in
08:20 94.5 °F 66.4 °F 30 in SSW 2 mph 4 mph 40 % 0 in
08:30 93.2 °F 64.6 °F 30 in SSW 2 mph 6 mph 39 % 0 in
08:40 93 °F 65.1 °F 30 in South 2 mph 5 mph 40 % 0 in
08:50 91 °F 64.8 °F 29.9 in SW 2 mph 6 mph 42 % 0 in
09:00 92.5 °F 65.5 °F 29.9 in SW 5 mph 6 mph 41 % 0 in
09:10 92.1 °F 65.7 °F 30 in SW 5 mph 6 mph 42 % 0 in
09:20 92.7 °F 65.5 °F 30 in SW 5 mph 6 mph 41 % 0 in
09:30 92.7 °F 65.5 °F 30 in SW 2 mph 10 mph 41 % 0 in
09:40 93.4 °F 66.2 °F 30 in SSW 5 mph 8 mph 41 % 0 in
09:50 92.5 °F 65.5 °F 30 in SW 3 mph 7 mph 41 % 0 in
10:00 93.9 °F 65.8 °F 30 in SW 3 mph 4 mph 40 % 0 in
10:10 93.6 °F 64.9 °F 30 in SW 3 mph 8 mph 39 % 0 in
10:20 93.2 °F 64.6 °F 30 in SW 6 mph 8 mph 39 % 0 in
10:30 93.2 °F 64.6 °F 30 in SW 3 mph 3 mph 39 % 0 in
10:40 94.3 °F 66.4 °F 30 in SSW 3 mph 5 mph 40 % 0 in
15:44 93.7 °F 64.9 °F 30 in West 11.5 mph 11.5 mph 39 % 0 in
15:49 93.9 °F 65.1 °F 29.9 in SW 10.4 mph 10.4 mph 39 % 0 in
15:54 93.9 °F 65.1 °F 29.9 in South 15 mph 15 mph 39 % 0 in
15:59 93.4 °F 64.8 °F 29.9 in SW 5.8 mph 6.4 mph 39 % 0 in
16:04 92.3 °F 64.6 °F 29.9 in WSW 12.5 mph 12.5 mph 40 % 0 in
16:09 91.8 °F 64.8 °F 29.9 in WSW 10.2 mph 10.2 mph 41 % 0 in
16:14 91.8 °F 64.8 °F 29.9 in SSW 11.5 mph 11.5 mph 41 % 0 in
16:19 92.3 °F 65.1 °F 29.9 in WSW 12.7 mph 12.7 mph 41 % 0 in
16:24 91.9 °F 64.9 °F 29.9 in SW 8.1 mph 8.1 mph 41 % 0 in
16:29 91.6 °F 65.1 °F 29.9 in South 5.8 mph 5.8 mph 42 % 0 in
16:34 91.2 °F 65.7 °F 29.9 in SSW 8.1 mph 8.1 mph 43 % 0 in
16:39 91.6 °F 65.1 °F 29.9 in SSW 8.1 mph 8.1 mph 42 % 0 in
16:44 91.4 °F 65.8 °F 29.9 in South 10.9 mph 10.9 mph 43 % 0 in
16:49 90.9 °F 65.3 °F 29.9 in South 13.8 mph 13.8 mph 43 % 0 in
16:54 90.1 °F 65.3 °F 29.9 in WSW 9.2 mph 9.2 mph 44 % 0 in
16:59 90.7 °F 65.8 °F 29.9 in SW 8.1 mph 8.1 mph 44 % 0 in
17:04 90 °F 65.8 °F 29.9 in SSW 9.2 mph 9.2 mph 45 % 0 in
17:09 89.4 °F 65.8 °F 29.9 in SSW 10.4 mph 10.4 mph 46 % 0 in
17:14 90.1 °F 65.8 °F 29.9 in WSW 4.6 mph 4.6 mph 45 % 0 in
17:19 90.3 °F 66.7 °F 29.9 in SW 12.1 mph 12.1 mph 46 % 0 in
17:24 89.4 °F 65.8 °F 29.9 in WSW 11.5 mph 11.5 mph 46 % 0 in
17:29 90.3 °F 66.7 °F 29.9 in West 5.8 mph 5.8 mph 46 % 0 in
17:34 89.1 °F 66.2 °F 29.9 in South 8.1 mph 8.1 mph 47 % 0 in
17:39 87.6 °F 65.5 °F 29.9 in SW 4.6 mph 4.6 mph 48 % 0 in
17:44 87.1 °F 65.7 °F 29.9 in WSW 5.8 mph 5.8 mph 49 % 0 in
17:49 86.5 °F 65.7 °F 30 in West 9.2 mph 9.2 mph 50 % 0 in
17:54 86.2 °F 65.8 °F 30 in SW 15 mph 15 mph 51 % 0 in
17:59 86.5 °F 66.4 °F 30 in SSW 6.9 mph 6.9 mph 51 % 0 in
18:04 87.1 °F 66.7 °F 30 in SW 10.2 mph 10.2 mph 51 % 0 in
18:09 86.7 °F 66.4 °F 30 in South 8.1 mph 8.1 mph 51 % 0 in
18:14 86.5 °F 66.4 °F 30 in SSW 6.9 mph 6.9 mph 51 % 0 in
18:15 86.7 °F 66.4 °F 30 in SW 9.2 mph 9.2 mph 51 % 0 in
18:20 87.3 °F 66.9 °F 29.9 in SW 5.8 mph 5.8 mph 51 % 0 in
18:25 86.4 °F 66.7 °F 29.9 in SW 6.4 mph 6.4 mph 52 % 0 in
18:30 85.8 °F 66.2 °F 29.9 in SW 9.2 mph 9.2 mph 52 % 0 in
18:35 85.5 °F 66.4 °F 29.9 in South 8.1 mph 8.1 mph 53 % 0 in
18:40 85.1 °F 66 °F 29.9 in South 10.4 mph 10.4 mph 53 % 0 in
18:45 84.9 °F 66.4 °F 29.9 in SSW 5.8 mph 5.8 mph 54 % 0 in
18:50 84.9 °F 66.4 °F 30 in SSW 9.2 mph 9.2 mph 54 % 0 in
18:55 84.9 °F 66.4 °F 30 in SW 8.1 mph 8.1 mph 54 % 0 in
19:05 84.7 °F 66.4 °F 30 in SSE 10.4 mph 10.4 mph 54 % 0 in
19:10 84.2 °F 66.4 °F 30 in SSW 5.8 mph 5.8 mph 55 % 0 in
19:15 84.6 °F 66 °F 30 in WSW 8.7 mph 8.7 mph 54 % 0 in
19:20 84.4 °F 66.4 °F 29.9 in West 6.9 mph 6.9 mph 55 % 0 in
19:25 84.6 °F 66.6 °F 29.9 in SW 5.9 mph 5.9 mph 55 % 0 in
19:30 84.4 °F 66.4 °F 29.9 in SW 5.8 mph 5.8 mph 55 % 0 in
19:35 83.7 °F 66.4 °F 29.9 in SSW 8.1 mph 8.1 mph 56 % 0 in
19:40 83.3 °F 66.6 °F 29.9 in SW 6.9 mph 6.9 mph 57 % 0 in
19:45 83.1 °F 66.4 °F 29.9 in WSW 5.8 mph 5.8 mph 57 % 0 in
19:50 83.1 °F 66.4 °F 30 in SSW 5.8 mph 5.8 mph 57 % 0 in
19:55 82.4 °F 65.7 °F 30 in WSW 9.2 mph 9.2 mph 57 % 0 in
20:00 82.4 °F 66 °F 30 in SW 5.8 mph 5.8 mph 58 % 0 in
20:05 82 °F 65.8 °F 29.9 in SW 9.2 mph 9.2 mph 58 % 0 in
20:15 81.5 °F 65.8 °F 29.9 in ESE 5.8 mph 5.8 mph 59 % 0 in
20:25 81 °F 65.8 °F 29.9 in SSW 5.8 mph 5.8 mph 60 % 0 in
20:30 80.8 °F 65.7 °F 29.9 in South 3.5 mph 3.5 mph 60 % 0 in
20:35 80.6 °F 65.8 °F 29.9 in SSW 4.6 mph 4.6 mph 61 % 0 in
20:40 80.2 °F 66 °F 29.9 in SW 5.8 mph 5.8 mph 62 % 0 in
20:45 79.9 °F 65.1 °F 29.9 in South 5.8 mph 5.8 mph 61 % 0 in
20:50 79.7 °F 65.5 °F 30 in SSW 2.6 mph 2.6 mph 62 % 0 in
20:55 79.5 °F 65.8 °F 30 in West 5.8 mph 5.8 mph 63 % 0 in
21:00 79.3 °F 65.1 °F 30 in SW 4.6 mph 4.6 mph 62 % 0 in
21:05 78.8 °F 65.1 °F 30 in WSW 7.1 mph 7.1 mph 63 % 0 in
21:10 78.4 °F 64.8 °F 30 in SW 6.9 mph 6.9 mph 63 % 0 in
21:15 78.3 °F 65.1 °F 30 in WSW 3.5 mph 3.5 mph 64 % 0 in
21:20 78.1 °F 64.9 °F 30 in WSW 2.3 mph 2.3 mph 64 % 0 in
21:25 78.1 °F 64.9 °F 30 in SSW 4.6 mph 4.6 mph 64 % 0 in
21:30 77.9 °F 64.8 °F 30 in SW 5.8 mph 5.8 mph 64 % 0 in
21:35 77.7 °F 64.6 °F 30 in SW 5.8 mph 5.8 mph 64 % 0 in
21:40 77.5 °F 64.8 °F 30 in SSW 2.4 mph 2.4 mph 65 % 0 in
21:45 77.4 °F 64.8 °F 30 in SW 3.5 mph 3.5 mph 65 % 0 in
21:50 77.2 °F 64.6 °F 30 in SSE 3.6 mph 3.6 mph 65 % 0 in
21:55 77 °F 64.2 °F 30 in SW 3.1 mph 3.1 mph 65 % 0 in
22:00 76.8 °F 64.9 °F 30 in SW 3.5 mph 3.5 mph 67 % 0 in
22:05 76.6 °F 64.9 °F 30 in WSW 2.3 mph 2.3 mph 67 % 0 in
22:10 76.6 °F 64.9 °F 30 in South 2.3 mph 2.3 mph 67 % 0 in
22:15 76.5 °F 65.1 °F 30 in WSW 2.6 mph 2.6 mph 68 % 0 in
22:20 76.3 °F 64.9 °F 30 in SW 3.5 mph 3.5 mph 68 % 0 in
22:25 76.3 °F 64.9 °F 30 in SW 3.5 mph 3.5 mph 68 % 0 in
22:30 76.1 °F 65.1 °F 30 in SW 2.4 mph 2.4 mph 69 % 0 in
22:35 75.9 °F 64.9 °F 30 in SW 2.3 mph 2.3 mph 69 % 0 in
22:40 75.9 °F 64.9 °F 30 in SW 3.5 mph 3.5 mph 69 % 0 in
22:41 75.7 °F 64.8 °F 30 in SW 3.5 mph 3.5 mph 69 % 0 in
22:45 73 °F 64.6 °F 30 in Calm   2 mph 75 % 0 in
22:46 75.7 °F 64.8 °F 30 in WSW 3.5 mph 3.5 mph 69 % 0 in
22:51 75.7 °F 64.8 °F 30 in SW 2.3 mph 2.3 mph 69 % 0 in
22:55 72.9 °F 64.8 °F 30 in Calm     76 % 0 in
22:56 75.6 °F 65.1 °F 30 in SW 2.6 mph 2.6 mph 70 % 0 in
23:01 75.6 °F 65.1 °F 30 in WSW 2.3 mph 2.3 mph 70 % 0 in
23:05 72.7 °F 64.8 °F 30 in Calm     76 % 0 in
23:06 75.4 °F 64.9 °F 30 in SW 4.6 mph 4.6 mph 70 % 0 in
23:11 75.4 °F 64.9 °F 30 in SW 2.3 mph 2.3 mph 70 % 0 in
23:15 72.5 °F 64.6 °F 30 in SW 1 mph 2 mph 76 % 0 in
23:16 75.4 °F 64.9 °F 30 in SW 3.5 mph 3.5 mph 70 % 0 in
23:18 75.4 °F 65.3 °F 30 in SW 1.2 mph 1.2 mph 71 % 0 in
23:23 75.2 °F 64.8 °F 30 in SW 2.3 mph 2.3 mph 70 % 0 in
23:25 72.3 °F 64.8 °F 30 in Calm   1 mph 77 % 0 in
23:28 75.2 °F 65.1 °F 30 in SW 2.3 mph 2.3 mph 71 % 0 in
23:33 75.2 °F 65.1 °F 30 in SW 2 mph 2 mph 71 % 0 in
23:35 72.3 °F 64.8 °F 30 in Calm     77 % 0 in
23:38 75 °F 65.5 °F 30 in WSW 1.2 mph 1.2 mph 72 % 0 in
23:43 75 °F 65.5 °F 30 in WSW 2.3 mph   72 % 0 in
23:45 72.1 °F 64.6 °F 30 in Calm     77 % 0 in
23:48 74.8 °F 65.1 °F 30 in SW 2.3 mph 2.3 mph 72 % 0 in
23:53 74.8 °F 65.1 °F 30 in WSW 1.2 mph 1.2 mph 72 % 0 in
23:55 72 °F 64.8 °F 30 in Calm     78 % 0 in
23:58 74.8 °F 65.1 °F 30 in SW 2.3 mph 2.3 mph 72 % 0 in
Meteo Sesrovires
Elogis d' Weather Underground - 3.5 mb

Guio original per  Jim McMurry - jmcmurry@mwt.net Adaptat per a la plantilla per  Wim van der Kuil - Leuven-Template.eu

Trobareu la nostra informacio del temps tambe a:

Weather Underground

AWEKAS